createdAt,value
2016-10-12T00:00:29.331Z,94.31
2016-10-12T00:01:40.054Z,94.02
2016-10-12T00:02:50.745Z,94.59
2016-10-12T00:04:01.453Z,94.5
2016-10-12T00:05:12.169Z,94.89
2016-10-12T00:06:22.914Z,95.07
2016-10-12T00:07:33.644Z,94.31
2016-10-12T00:08:44.371Z,94.5
2016-10-12T00:09:55.120Z,93.93
2016-10-12T00:11:05.820Z,94.98
2016-10-12T00:12:16.544Z,94.89
2016-10-12T00:13:27.276Z,94.69
2016-10-12T00:14:37.973Z,95.65
2016-10-12T00:15:48.673Z,95.07
2016-10-12T00:16:59.377Z,95.17
2016-10-12T00:18:10.103Z,95.65
2016-10-12T00:19:20.795Z,95.36
2016-10-12T00:20:31.492Z,95.56
2016-10-12T00:21:42.710Z,95.07
2016-10-12T00:22:53.427Z,95.07
2016-10-12T00:24:04.142Z,94.89
2016-10-12T00:25:14.839Z,94.69
2016-10-12T00:26:25.558Z,94.5
2016-10-12T00:27:36.262Z,94.5
2016-10-12T00:28:46.966Z,94.17
2016-10-12T00:29:57.704Z,93.68
2016-10-12T00:31:08.438Z,93.97
2016-10-12T00:32:19.143Z,93.78
2016-10-12T00:33:29.852Z,93.97
2016-10-12T00:34:40.556Z,93.59
2016-10-12T00:35:51.261Z,93.59
2016-10-12T00:37:01.975Z,93.3
2016-10-12T00:38:12.650Z,93.01
2016-10-12T00:39:23.355Z,92.63
2016-10-12T00:40:34.061Z,92.05
2016-10-12T00:41:44.806Z,92.19
2016-10-12T00:42:56.061Z,92.1
2016-10-12T00:44:06.806Z,92.19
2016-10-12T00:45:17.511Z,92
2016-10-12T00:46:28.192Z,92.29
2016-10-12T00:47:38.901Z,91.81
2016-10-12T00:48:49.606Z,91.91
2016-10-12T00:50:00.290Z,92.1
2016-10-12T00:51:10.993Z,91.91
2016-10-12T00:52:21.706Z,92
2016-10-12T00:53:32.411Z,91.52
2016-10-12T00:54:43.621Z,90.08
2016-10-12T00:55:54.316Z,90.56
2016-10-12T00:57:05.035Z,91.33
2016-10-12T00:58:15.751Z,90.85
2016-10-12T00:59:26.477Z,90.81
2016-10-12T01:00:37.176Z,91
2016-10-12T01:01:47.890Z,92.05
2016-10-12T01:02:58.592Z,92.05
2016-10-12T01:04:09.309Z,91.67
2016-10-12T01:05:20.020Z,91.57
2016-10-12T01:06:30.716Z,91.86
2016-10-12T01:07:41.438Z,91.57
2016-10-12T01:08:52.130Z,91.67
2016-10-12T01:10:02.828Z,92.72
2016-10-12T01:11:13.521Z,92.54
2016-10-12T01:12:24.245Z,92.34
2016-10-12T01:13:34.939Z,92.24
2016-10-12T01:14:45.659Z,92.54
2016-10-12T01:15:56.371Z,92.44
2016-10-12T01:17:07.120Z,92.54
2016-10-12T01:18:17.864Z,92.15
2016-10-12T01:19:28.575Z,92.91
2016-10-12T01:20:39.281Z,92.82
2016-10-12T01:21:50.008Z,92.91
2016-10-12T01:23:00.734Z,92.97
2016-10-12T01:24:11.454Z,93.44
2016-10-12T01:25:22.169Z,94.59
2016-10-12T01:26:32.927Z,94.12
2016-10-12T01:27:44.124Z,94.69
2016-10-12T01:28:54.833Z,94.89
2016-10-12T01:30:05.568Z,94.89
2016-10-12T01:31:16.283Z,94.98
2016-10-12T01:32:26.985Z,94.69
2016-10-12T01:33:37.663Z,94.79
2016-10-12T01:34:48.387Z,94.69
2016-10-12T01:35:59.100Z,94.98
2016-10-12T01:37:09.819Z,94.89
2016-10-12T01:38:20.555Z,94.89
2016-10-12T01:39:31.237Z,94.4
2016-10-12T01:40:41.968Z,95.07
2016-10-12T01:41:52.698Z,95.17
2016-10-12T01:43:03.415Z,94.98
2016-10-12T01:44:14.104Z,95.07
2016-10-12T01:45:24.804Z,95.07
2016-10-12T01:46:35.521Z,95.26
2016-10-12T01:47:46.253Z,95.17
2016-10-12T01:48:56.976Z,96.03
2016-10-12T01:50:07.700Z,95.94
2016-10-12T01:51:18.417Z,95.94
2016-10-12T01:52:29.121Z,95.65
2016-10-12T01:53:39.801Z,96.08
2016-10-12T01:54:50.494Z,96.32
2016-10-12T01:56:01.184Z,96.7
2016-10-12T01:57:11.898Z,96.7
2016-10-12T01:58:22.602Z,96.42
2016-10-12T01:59:33.301Z,96.84
2016-10-12T02:00:43.997Z,96.66
2016-10-12T02:01:54.730Z,96.47
2016-10-12T02:03:05.445Z,96.75
2016-10-12T02:04:16.146Z,96.94
2016-10-12T02:05:26.845Z,97.33
2016-10-12T02:06:37.585Z,97.42
2016-10-12T02:07:48.282Z,97.8
2016-10-12T02:08:59.005Z,97.71
2016-10-12T02:10:10.213Z,98.1
2016-10-12T02:11:20.933Z,97.9
2016-10-12T02:12:31.638Z,97.8
2016-10-12T02:13:42.353Z,98.28
2016-10-12T02:14:53.070Z,98.1
2016-10-12T02:16:03.774Z,98.19
2016-10-12T02:17:14.481Z,98.38
2016-10-12T02:18:25.197Z,98.57
2016-10-12T02:19:35.915Z,98.67
2016-10-12T02:20:46.627Z,98.57
2016-10-12T02:21:57.338Z,98.57
2016-10-12T02:23:08.047Z,98.96
2016-10-12T02:24:18.747Z,98.57
2016-10-12T02:25:29.472Z,98.96
2016-10-12T02:26:40.708Z,98.86
2016-10-12T02:27:51.409Z,98.67
2016-10-12T02:29:02.135Z,98.38
2016-10-12T02:30:12.837Z,98.19
2016-10-12T02:31:23.559Z,98.76
2016-10-12T02:32:34.274Z,98.96
2016-10-12T02:33:44.971Z,98.96
2016-10-12T02:34:55.705Z,98.96
2016-10-12T02:36:06.418Z,98.86
2016-10-12T02:37:17.112Z,98.57
2016-10-12T02:38:27.801Z,98.57
2016-10-12T02:39:38.506Z,98.67
2016-10-12T02:40:49.189Z,99.24
2016-10-12T02:41:59.897Z,99.24
2016-10-12T02:43:10.575Z,98.57
2016-10-12T02:44:21.289Z,98.86
2016-10-12T02:45:31.984Z,98.96
2016-10-12T02:46:42.726Z,99.15
2016-10-12T02:47:53.453Z,98.76
2016-10-12T02:49:04.183Z,98.96
2016-10-12T02:50:14.885Z,98.96
2016-10-12T02:51:25.616Z,99.24
2016-10-12T02:52:36.316Z,98.57
2016-10-12T02:53:47.025Z,98.96
2016-10-12T02:54:57.729Z,98.86
2016-10-12T02:56:08.442Z,99.05
2016-10-12T02:57:19.119Z,98.96
2016-10-12T02:58:29.833Z,99.05
2016-10-12T02:59:40.535Z,99.24
2016-10-12T03:00:51.236Z,99.34
2016-10-12T03:02:01.965Z,99.72
2016-10-12T03:03:12.684Z,99.53
2016-10-12T03:04:23.388Z,99.34
2016-10-12T03:05:34.102Z,99.43
2016-10-12T03:06:44.773Z,99.82
2016-10-12T03:07:55.881Z,99.91
2016-10-12T03:09:06.605Z,99.63
2016-10-12T03:10:17.337Z,99.43
2016-10-12T03:11:28.033Z,99.53
2016-10-12T03:12:38.748Z,99.53
2016-10-12T03:13:49.463Z,99.24
2016-10-12T03:15:00.178Z,99.82
2016-10-12T03:16:10.871Z,99.82
2016-10-12T03:17:21.558Z,99.53
2016-10-12T03:18:32.275Z,99.99
2016-10-12T03:19:42.993Z,99.99
2016-10-12T03:20:53.718Z,99.99
2016-10-12T03:22:04.425Z,99.99
2016-10-12T03:23:15.122Z,99.99
2016-10-12T03:24:25.822Z,99.99
2016-10-12T03:25:36.537Z,99.99
2016-10-12T03:26:47.236Z,99.99
2016-10-12T03:27:57.930Z,99.99
2016-10-12T03:29:08.656Z,99.99
2016-10-12T03:30:19.376Z,99.99
2016-10-12T03:31:30.102Z,99.99
2016-10-12T03:32:41.318Z,99.99
2016-10-12T03:33:52.563Z,99.99
2016-10-12T03:35:03.292Z,99.99
2016-10-12T03:36:14.012Z,99.99
2016-10-12T03:37:24.714Z,99.99
2016-10-12T03:38:35.419Z,99.99
2016-10-12T03:39:46.631Z,99.99
2016-10-12T03:40:57.362Z,99.99
2016-10-12T03:42:08.577Z,99.99
2016-10-12T03:43:19.811Z,99.99
2016-10-12T03:44:30.529Z,99.99
2016-10-12T03:45:41.257Z,99.99
2016-10-12T03:46:51.972Z,99.99
2016-10-12T03:48:03.194Z,99.99
2016-10-12T03:49:15.435Z,99.99
2016-10-12T03:50:26.117Z,99.99
2016-10-12T03:51:36.851Z,99.99
2016-10-12T03:52:48.063Z,99.99
2016-10-12T03:53:59.796Z,99.99
2016-10-12T03:55:10.985Z,99.99
2016-10-12T03:56:22.725Z,99.99
2016-10-12T03:57:33.458Z,99.99
2016-10-12T03:58:44.148Z,99.99
2016-10-12T03:59:54.863Z,99.99
2016-10-12T04:01:05.560Z,99.99
2016-10-12T04:02:16.276Z,99.99
2016-10-12T04:03:28.126Z,99.99
2016-10-12T04:04:38.841Z,99.99
2016-10-12T04:05:49.553Z,99.99
2016-10-12T04:07:00.287Z,99.99
2016-10-12T04:08:11.006Z,99.99
2016-10-12T04:09:22.206Z,99.99
2016-10-12T04:10:32.897Z,99.99
2016-10-12T04:11:43.602Z,99.99
2016-10-12T04:12:54.847Z,99.99
2016-10-12T04:14:05.542Z,99.99
2016-10-12T04:15:16.230Z,99.99
2016-10-12T04:16:27.430Z,99.99
2016-10-12T04:17:38.667Z,99.99
2016-10-12T04:18:49.399Z,99.99
2016-10-12T04:20:00.092Z,99.99
2016-10-12T04:21:10.804Z,99.99
2016-10-12T04:22:21.500Z,99.99
2016-10-12T04:23:32.184Z,99.99
2016-10-12T04:24:43.410Z,99.99
2016-10-12T04:25:54.128Z,99.99
2016-10-12T04:27:04.862Z,99.99
2016-10-12T04:28:15.576Z,99.99
2016-10-12T04:29:26.277Z,99.99
2016-10-12T04:30:37.003Z,99.99
2016-10-12T04:31:47.714Z,99.99
2016-10-12T04:32:58.406Z,99.99
2016-10-12T04:34:09.140Z,99.99
2016-10-12T04:35:20.350Z,99.99
2016-10-12T04:36:31.064Z,99.99
2016-10-12T04:37:41.750Z,99.99
2016-10-12T04:38:52.487Z,99.99
2016-10-12T04:40:03.189Z,99.99
2016-10-12T04:41:13.925Z,99.99
2016-10-12T04:42:24.607Z,99.99
2016-10-12T04:43:35.286Z,99.99
2016-10-12T04:44:45.990Z,99.99
2016-10-12T04:45:56.686Z,99.99
2016-10-12T04:47:07.399Z,99.99
2016-10-12T04:48:18.102Z,99.99
2016-10-12T04:49:28.826Z,99.99
2016-10-12T04:50:39.528Z,99.99
2016-10-12T04:51:50.211Z,99.99
2016-10-12T04:53:00.893Z,99.99
2016-10-12T04:54:11.593Z,99.99
2016-10-12T04:55:22.279Z,99.99
2016-10-12T04:56:32.984Z,99.99
2016-10-12T04:57:43.677Z,99.99
2016-10-12T04:58:54.380Z,99.99
2016-10-12T05:00:05.099Z,99.99
2016-10-12T05:01:15.810Z,99.99
2016-10-12T05:02:26.515Z,99.99
2016-10-12T05:03:37.200Z,99.99
2016-10-12T05:04:47.882Z,99.99
2016-10-12T05:05:58.610Z,99.99
2016-10-12T05:07:09.338Z,99.99
2016-10-12T05:08:20.036Z,99.99
2016-10-12T05:09:31.263Z,99.99
2016-10-12T05:10:41.976Z,99.99
2016-10-12T05:11:52.675Z,99.99
2016-10-12T05:13:03.374Z,99.99
2016-10-12T05:14:14.110Z,99.99
2016-10-12T05:15:24.796Z,99.99
2016-10-12T05:16:35.514Z,99.99
2016-10-12T05:17:46.212Z,99.99
2016-10-12T05:18:56.942Z,99.99
2016-10-12T05:20:07.640Z,99.99
2016-10-12T05:21:18.359Z,99.99
2016-10-12T05:22:29.060Z,99.99
2016-10-12T05:23:39.750Z,99.99
2016-10-12T05:24:50.436Z,99.99
2016-10-12T05:26:01.145Z,99.99
2016-10-12T05:27:11.857Z,99.99
2016-10-12T05:28:22.547Z,99.99
2016-10-12T05:29:33.252Z,99.99
2016-10-12T05:30:43.954Z,99.99
2016-10-12T05:31:54.653Z,99.99
2016-10-12T05:33:05.365Z,99.99
2016-10-12T05:34:16.080Z,99.99
2016-10-12T05:35:26.783Z,99.99
2016-10-12T05:36:37.491Z,99.99
2016-10-12T05:37:48.196Z,99.99
2016-10-12T05:38:58.925Z,99.99
2016-10-12T05:40:10.147Z,99.99
2016-10-12T05:41:20.850Z,99.99
2016-10-12T05:42:31.562Z,99.99
2016-10-12T05:43:42.260Z,99.99
2016-10-12T05:44:52.953Z,99.99
2016-10-12T05:46:03.649Z,99.99
2016-10-12T05:47:14.370Z,99.99
2016-10-12T05:48:25.068Z,99.99
2016-10-12T05:49:35.763Z,99.99
2016-10-12T05:50:46.479Z,99.99
2016-10-12T05:51:57.204Z,99.99
2016-10-12T05:53:07.952Z,99.99
2016-10-12T05:54:18.646Z,99.99
2016-10-12T05:55:29.368Z,99.99
2016-10-12T05:56:40.075Z,99.99
2016-10-12T05:57:50.791Z,99.99
2016-10-12T05:59:01.508Z,99.99
2016-10-12T06:00:12.198Z,99.99
2016-10-12T06:01:22.889Z,99.99
2016-10-12T06:02:33.562Z,99.99
2016-10-12T06:03:44.259Z,99.99
2016-10-12T06:04:54.979Z,99.99
2016-10-12T06:06:05.674Z,99.99
2016-10-12T06:07:16.380Z,99.99
2016-10-12T06:08:27.060Z,99.99
2016-10-12T06:09:37.758Z,99.99
2016-10-12T06:10:48.488Z,99.99
2016-10-12T06:11:59.203Z,99.99
2016-10-12T06:13:09.905Z,99.99
2016-10-12T06:14:20.605Z,99.99
2016-10-12T06:15:31.306Z,99.99
2016-10-12T06:16:42.041Z,99.99
2016-10-12T06:17:52.777Z,99.99
2016-10-12T06:19:03.489Z,99.99
2016-10-12T06:20:14.196Z,99.99
2016-10-12T06:21:24.900Z,99.99
2016-10-12T06:22:35.630Z,99.99
2016-10-12T06:23:46.348Z,99.99
2016-10-12T06:24:57.093Z,99.99
2016-10-12T06:26:07.808Z,99.99
2016-10-12T06:27:18.505Z,99.99
2016-10-12T06:28:29.254Z,99.99
2016-10-12T06:29:39.959Z,99.99
2016-10-12T06:30:50.656Z,99.99
2016-10-12T06:32:01.400Z,99.99
2016-10-12T06:33:12.629Z,99.99
2016-10-12T06:34:23.383Z,99.99
2016-10-12T06:35:34.109Z,99.99
2016-10-12T06:36:44.808Z,99.99
2016-10-12T06:37:55.490Z,99.99
2016-10-12T06:39:06.210Z,99.99
2016-10-12T06:40:16.922Z,99.99
2016-10-12T06:41:27.668Z,99.99
2016-10-12T06:42:38.391Z,99.99
2016-10-12T06:43:49.093Z,99.99
2016-10-12T06:44:59.810Z,99.99
2016-10-12T06:46:10.506Z,99.99
2016-10-12T06:47:21.216Z,99.99
2016-10-12T06:48:31.933Z,99.99
2016-10-12T06:49:42.646Z,99.99
2016-10-12T06:50:53.346Z,99.99
2016-10-12T06:52:04.024Z,99.99
2016-10-12T06:53:14.753Z,99.99
2016-10-12T06:54:25.433Z,99.99
2016-10-12T06:55:36.140Z,99.99
2016-10-12T06:56:46.829Z,99.99
2016-10-12T06:57:57.547Z,99.99
2016-10-12T06:59:08.261Z,99.99
2016-10-12T07:00:18.955Z,99.99
2016-10-12T07:01:29.662Z,99.99
2016-10-12T07:02:40.381Z,99.99
2016-10-12T07:03:51.086Z,99.99
2016-10-12T07:05:01.793Z,99.99
2016-10-12T07:06:12.478Z,99.99
2016-10-12T07:07:23.201Z,99.99
2016-10-12T07:08:33.952Z,99.99
2016-10-12T07:09:44.657Z,99.99
2016-10-12T07:10:55.386Z,99.99
2016-10-12T07:12:06.065Z,99.99
2016-10-12T07:13:16.799Z,99.99
2016-10-12T07:14:27.472Z,99.99
2016-10-12T07:15:38.176Z,99.99
2016-10-12T07:16:49.158Z,99.99
2016-10-12T07:17:59.864Z,99.99
2016-10-12T07:19:10.551Z,99.99
2016-10-12T07:20:21.458Z,99.99
2016-10-12T07:21:32.177Z,99.99
2016-10-12T07:22:42.889Z,99.99
2016-10-12T07:23:53.588Z,99.99
2016-10-12T07:25:04.315Z,99.99
2016-10-12T07:26:15.023Z,99.99
2016-10-12T07:27:25.723Z,99.99
2016-10-12T07:28:36.430Z,99.99
2016-10-12T07:29:47.144Z,99.99
2016-10-12T07:30:57.865Z,99.99
2016-10-12T07:32:08.557Z,99.99
2016-10-12T07:33:19.254Z,99.99
2016-10-12T07:34:29.946Z,99.99
2016-10-12T07:35:40.669Z,99.99
2016-10-12T07:36:51.358Z,99.99
2016-10-12T07:38:02.065Z,99.99
2016-10-12T07:39:12.832Z,99.99
2016-10-12T07:40:23.557Z,99.99
2016-10-12T07:41:34.277Z,99.99
2016-10-12T07:42:44.996Z,99.99
2016-10-12T07:43:55.737Z,99.99
2016-10-12T07:45:06.489Z,99.99
2016-10-12T07:46:17.744Z,99.99
2016-10-12T07:47:29.159Z,99.99
2016-10-12T07:48:39.869Z,99.99
2016-10-12T07:49:50.592Z,99.99
2016-10-12T07:51:01.319Z,99.99
2016-10-12T07:52:12.045Z,99.99
2016-10-12T07:53:22.747Z,99.99
2016-10-12T07:54:33.437Z,99.99
2016-10-12T07:55:44.145Z,99.99
2016-10-12T07:56:54.894Z,99.99
2016-10-12T07:58:05.595Z,99.99
2016-10-12T07:59:16.298Z,99.99
2016-10-12T08:00:27.010Z,99.99
2016-10-12T08:01:37.708Z,99.99
2016-10-12T08:02:48.433Z,99.99
2016-10-12T08:03:59.131Z,99.99
2016-10-12T08:05:09.851Z,99.99
2016-10-12T08:06:20.570Z,99.99
2016-10-12T08:07:31.275Z,99.99
2016-10-12T08:08:42.003Z,99.99
2016-10-12T08:09:52.724Z,99.99
2016-10-12T08:11:03.438Z,99.99
2016-10-12T08:12:14.151Z,99.99
2016-10-12T08:13:25.374Z,99.99
2016-10-12T08:14:36.597Z,99.99
2016-10-12T08:15:47.287Z,99.99
2016-10-12T08:16:57.999Z,99.99
2016-10-12T08:18:08.727Z,99.99
2016-10-12T08:19:19.426Z,99.99
2016-10-12T08:20:30.128Z,99.99
2016-10-12T08:21:40.871Z,99.99
2016-10-12T08:22:51.580Z,99.99
2016-10-12T08:24:02.279Z,99.99
2016-10-12T08:25:13.003Z,99.99
2016-10-12T08:26:23.676Z,99.99
2016-10-12T08:27:34.383Z,99.99
2016-10-12T08:28:45.069Z,99.99
2016-10-12T08:29:55.759Z,99.99
2016-10-12T08:31:06.453Z,99.99
2016-10-12T08:32:17.165Z,99.99
2016-10-12T08:33:27.864Z,99.99
2016-10-12T08:34:38.566Z,99.99
2016-10-12T08:35:49.288Z,99.99
2016-10-12T08:36:59.997Z,99.99
2016-10-12T08:38:10.688Z,99.99
2016-10-12T08:39:21.449Z,99.99
2016-10-12T08:40:32.151Z,99.99
2016-10-12T08:41:42.876Z,99.99
2016-10-12T08:42:54.103Z,99.99
2016-10-12T08:44:04.832Z,99.99
2016-10-12T08:45:15.535Z,99.99
2016-10-12T08:46:26.234Z,99.99
2016-10-12T08:47:36.936Z,99.99
2016-10-12T08:48:47.628Z,99.99
2016-10-12T08:49:58.325Z,99.99
2016-10-12T08:51:09.000Z,99.99
2016-10-12T08:52:19.903Z,99.99
2016-10-12T08:53:30.587Z,99.99
2016-10-12T08:54:41.299Z,99.99
2016-10-12T08:55:52.196Z,99.99
2016-10-12T08:57:02.919Z,99.99
2016-10-12T08:58:13.703Z,99.99
2016-10-12T08:59:24.628Z,99.99
2016-10-12T09:00:35.328Z,99.99
2016-10-12T09:01:46.578Z,99.99
2016-10-12T09:02:57.307Z,99.99
2016-10-12T09:04:07.986Z,99.99
2016-10-12T09:05:18.665Z,99.99
2016-10-12T09:06:29.377Z,99.99
2016-10-12T09:07:40.077Z,99.63
2016-10-12T09:08:50.767Z,98.43
2016-10-12T09:10:01.468Z,98.24
2016-10-12T09:11:12.170Z,97.71
2016-10-12T09:12:23.047Z,96.56
2016-10-12T09:13:33.760Z,95.65
2016-10-12T09:14:44.466Z,94.69
2016-10-12T09:15:55.170Z,93.68
2016-10-12T09:17:05.882Z,91.96
2016-10-12T09:18:16.588Z,91.09
2016-10-12T09:19:27.314Z,90.27
2016-10-12T09:20:38.037Z,89.4
2016-10-12T09:21:48.741Z,88.3
2016-10-12T09:22:59.439Z,86.95
2016-10-12T09:24:10.662Z,85.41
2016-10-12T09:25:21.354Z,85.71
2016-10-12T09:26:32.057Z,85.41
2016-10-12T09:27:42.765Z,84.98
2016-10-12T09:28:53.469Z,83.63
2016-10-12T09:30:04.161Z,82.23
2016-10-12T09:31:14.879Z,81.4
2016-10-12T09:32:25.582Z,81.02
2016-10-12T09:33:36.273Z,80.35
2016-10-12T09:34:46.965Z,79.19
2016-10-12T09:35:57.711Z,79.52
2016-10-12T09:37:08.929Z,78.85
2016-10-12T09:38:19.635Z,77.88
2016-10-12T09:39:30.377Z,77.11
2016-10-12T09:40:41.074Z,76.67
2016-10-12T09:41:51.752Z,75.71
2016-10-12T09:43:02.449Z,75.99
2016-10-12T09:44:13.145Z,75.51
2016-10-12T09:45:24.394Z,74.3
2016-10-12T09:46:35.123Z,75.16
2016-10-12T09:47:45.813Z,75.51
2016-10-12T09:48:56.518Z,75.13
2016-10-12T09:50:07.242Z,74.93
2016-10-12T09:51:17.973Z,74.84
2016-10-12T09:52:28.687Z,74.2
2016-10-12T09:53:39.407Z,74.4
2016-10-12T09:54:50.120Z,74.58
2016-10-12T09:56:00.840Z,74.65
2016-10-12T09:57:11.574Z,75.32
2016-10-12T09:58:22.293Z,76.34
2016-10-12T09:59:32.982Z,76.25
2016-10-12T10:00:43.689Z,75.51
2016-10-12T10:01:54.381Z,75.9
2016-10-12T10:03:05.124Z,76.86
2016-10-12T10:04:15.830Z,76.82
2016-10-12T10:05:26.539Z,76.34
2016-10-12T10:06:37.275Z,75.32
2016-10-12T10:07:47.976Z,75.9
2016-10-12T10:08:58.704Z,76.63
2016-10-12T10:10:09.396Z,76.82
2016-10-12T10:11:20.095Z,76.44
2016-10-12T10:12:30.795Z,76.44
2016-10-12T10:13:41.512Z,76.63
2016-10-12T10:14:52.229Z,75.32
2016-10-12T10:16:02.935Z,74.07
2016-10-12T10:17:13.675Z,72.31
2016-10-12T10:18:24.461Z,70.48
2016-10-12T10:19:35.181Z,69.35
2016-10-12T10:20:45.879Z,70.26
2016-10-12T10:21:56.610Z,70.8
2016-10-12T10:23:07.343Z,72.5
2016-10-12T10:24:18.031Z,73.91
2016-10-12T10:25:28.753Z,72.95
2016-10-12T10:26:39.478Z,72.66
2016-10-12T10:27:50.220Z,71.44
2016-10-12T10:29:00.948Z,70.38
2016-10-12T10:30:11.656Z,69.16
2016-10-12T10:31:22.368Z,67.75
2016-10-12T10:32:33.090Z,65.75
2016-10-12T10:33:43.808Z,63.21
2016-10-12T10:34:54.511Z,62.66
2016-10-12T10:36:05.246Z,62.3
2016-10-12T10:37:15.957Z,62.11
2016-10-12T10:38:27.177Z,61.15
2016-10-12T10:39:37.901Z,59.59
2016-10-12T10:40:48.610Z,60.59
2016-10-12T10:41:59.355Z,61.82
2016-10-12T10:43:10.078Z,63.5
2016-10-12T10:44:21.323Z,64.27
2016-10-12T10:45:32.023Z,65.17
2016-10-12T10:46:42.779Z,64.79
2016-10-12T10:47:53.478Z,63.28
2016-10-12T10:49:04.191Z,62.53
2016-10-12T10:50:14.881Z,61.5
2016-10-12T10:51:25.627Z,60.75
2016-10-12T10:52:36.355Z,60.95
2016-10-12T10:53:47.034Z,60.47
2016-10-12T10:54:57.768Z,60.47
2016-10-12T10:56:08.501Z,61.63
2016-10-12T10:57:19.235Z,59.5
2016-10-12T10:58:29.964Z,58.24
2016-10-12T10:59:40.661Z,58.3
2016-10-12T11:00:51.372Z,58.78
2016-10-12T11:02:02.667Z,58.56
2016-10-12T11:03:13.395Z,57.33
2016-10-12T11:04:24.140Z,56.68
2016-10-12T11:05:35.380Z,57.71
2016-10-12T11:06:46.104Z,58.2
2016-10-12T11:07:56.833Z,58.56
2016-10-12T11:09:07.567Z,58.37
2016-10-12T11:10:18.327Z,59.59
2016-10-12T11:11:29.030Z,58.24
2016-10-12T11:12:39.757Z,58.47
2016-10-12T11:13:50.469Z,58.27
2016-10-12T11:15:01.200Z,59.23
2016-10-12T11:16:11.923Z,59.63
2016-10-12T11:17:22.658Z,59.14
2016-10-12T11:18:33.387Z,57.98
2016-10-12T11:19:44.133Z,55.68
2016-10-12T11:20:54.975Z,56.07
2016-10-12T11:22:05.985Z,56.77
2016-10-12T11:23:16.715Z,57.04
2016-10-12T11:24:27.449Z,55.68
2016-10-12T11:25:38.200Z,55.04
2016-10-12T11:26:48.928Z,53.99
2016-10-12T11:27:59.630Z,53.41
2016-10-12T11:29:10.340Z,54.96
2016-10-12T11:30:21.570Z,57.91
2016-10-12T11:31:32.289Z,59.11
2016-10-12T11:32:43.001Z,58.12
2016-10-12T11:33:53.764Z,58.17
2016-10-12T11:35:04.516Z,56.62
2016-10-12T11:36:15.241Z,55.58
2016-10-12T11:37:25.940Z,54.45
2016-10-12T11:38:36.663Z,54.28
2016-10-12T11:39:47.389Z,53.89
2016-10-12T11:40:58.121Z,54.84
2016-10-12T11:42:08.852Z,54.06
2016-10-12T11:43:19.585Z,54.84
2016-10-12T11:44:30.308Z,55.1
2016-10-12T11:45:41.005Z,55.88
2016-10-12T11:46:51.739Z,55.3
2016-10-12T11:48:02.514Z,54.62
2016-10-12T11:49:13.297Z,54.79
2016-10-12T11:50:24.059Z,54.43
2016-10-12T11:51:35.290Z,53.29
2016-10-12T11:52:46.002Z,52.51
2016-10-12T11:53:56.717Z,51.96
2016-10-12T11:55:07.439Z,50.62
2016-10-12T11:56:18.160Z,49.49
2016-10-12T11:57:28.865Z,49.61
2016-10-12T11:58:39.604Z,50.65
2016-10-12T11:59:50.331Z,52.64
2016-10-12T12:01:01.611Z,53.94
2016-10-12T12:02:12.348Z,55.07
2016-10-12T12:03:23.061Z,54.37
2016-10-12T12:04:33.779Z,54.01
2016-10-12T12:05:44.484Z,51.81
2016-10-12T12:06:55.199Z,52.32
2016-10-12T12:08:05.915Z,52.32
2016-10-12T12:09:16.673Z,54.03
2016-10-12T12:10:27.382Z,53.65
2016-10-12T12:11:38.114Z,51.72
2016-10-12T12:12:48.871Z,50.41
2016-10-12T12:13:59.599Z,51.86
2016-10-12T12:15:10.327Z,53.17
2016-10-12T12:16:21.080Z,54.39
2016-10-12T12:17:31.822Z,55.34
2016-10-12T12:18:42.545Z,54.66
2016-10-12T12:19:53.283Z,54.17
2016-10-12T12:21:04.018Z,53.63
2016-10-12T12:22:14.754Z,53.07
2016-10-12T12:23:25.479Z,52.12
2016-10-12T12:24:36.202Z,50.57
2016-10-12T12:25:46.923Z,50.53
2016-10-12T12:26:57.643Z,51.5
2016-10-12T12:28:08.907Z,52.44
2016-10-12T12:29:19.630Z,52.32
2016-10-12T12:30:30.360Z,52
2016-10-12T12:31:41.056Z,50.48
2016-10-12T12:32:51.805Z,48.76
2016-10-12T12:34:02.536Z,47.55
2016-10-12T12:35:13.277Z,47.01
2016-10-12T12:36:24.030Z,47.69
2016-10-12T12:37:34.795Z,47.69
2016-10-12T12:38:45.537Z,49.22
2016-10-12T12:39:56.250Z,49.49
2016-10-12T12:41:06.969Z,50.92
2016-10-12T12:42:17.691Z,50.43
2016-10-12T12:43:28.436Z,51.21
2016-10-12T12:44:39.153Z,49.44
2016-10-12T12:45:49.879Z,49.82
2016-10-12T12:47:00.612Z,49.75
2016-10-12T12:48:11.302Z,50.04
2016-10-12T12:49:22.008Z,49.17
2016-10-12T12:50:32.712Z,50.62
2016-10-12T12:51:43.418Z,50.34
2016-10-12T12:52:54.130Z,51.09
2016-10-12T12:54:04.860Z,51.64
2016-10-12T12:55:15.576Z,50.96
2016-10-12T12:56:26.293Z,49.61
2016-10-12T12:57:37.012Z,48.39
2016-10-12T12:58:47.724Z,48.32
2016-10-12T12:59:58.459Z,47.74
2016-10-12T13:01:09.694Z,47.38
2016-10-12T13:02:20.392Z,46.6
2016-10-12T13:03:31.124Z,46.14
2016-10-12T13:04:41.837Z,45.77
2016-10-12T13:05:52.565Z,45.67
2016-10-12T13:07:03.291Z,46.62
2016-10-12T13:08:14.017Z,47.57
2016-10-12T13:09:24.768Z,47.55
2016-10-12T13:10:35.491Z,47.45
2016-10-12T13:11:46.223Z,46.6
2016-10-12T13:12:56.961Z,45.94
2016-10-12T13:14:07.700Z,46.33
2016-10-12T13:15:18.409Z,46.42
2016-10-12T13:16:29.125Z,45.75
2016-10-12T13:17:39.869Z,46.5
2016-10-12T13:18:50.586Z,45.82
2016-10-12T13:20:01.329Z,45.65
2016-10-12T13:21:12.041Z,44.79
2016-10-12T13:22:22.789Z,46.62
2016-10-12T13:23:33.490Z,44.58
2016-10-12T13:24:44.193Z,43.44
2016-10-12T13:25:54.935Z,43.65
2016-10-12T13:27:05.675Z,43.16
2016-10-12T13:28:16.393Z,44.7
2016-10-12T13:29:27.088Z,44.12
2016-10-12T13:30:37.823Z,45.07
2016-10-12T13:31:48.546Z,45.36
2016-10-12T13:32:59.266Z,46.31
2016-10-12T13:34:10.026Z,45.7
2016-10-12T13:35:20.767Z,46.11
2016-10-12T13:36:31.484Z,45.92
2016-10-12T13:37:42.181Z,45.84
2016-10-12T13:38:52.902Z,45.26
2016-10-12T13:40:03.627Z,46.14
2016-10-12T13:41:14.331Z,45.75
2016-10-12T13:42:25.065Z,46.42
2016-10-12T13:43:35.792Z,46.11
2016-10-12T13:44:46.546Z,47.38
2016-10-12T13:45:57.270Z,47.74
2016-10-12T13:47:07.962Z,47.83
2016-10-12T13:48:18.670Z,46.98
2016-10-12T13:49:29.388Z,47.47
2016-10-12T13:50:40.127Z,47.57
2016-10-12T13:51:50.843Z,47.47
2016-10-12T13:53:01.597Z,47.83
2016-10-12T13:54:12.319Z,47.74
2016-10-12T13:55:23.035Z,47.35
2016-10-12T13:56:34.275Z,47.64
2016-10-12T13:57:45.000Z,46.98
2016-10-12T13:58:55.735Z,46.5
2016-10-12T14:00:06.453Z,46.52
2016-10-12T14:01:17.182Z,47.18
2016-10-12T14:02:27.915Z,47.06
2016-10-12T14:03:38.644Z,47.66
2016-10-12T14:04:49.356Z,45.62
2016-10-12T14:06:00.075Z,44.68
2016-10-12T14:07:10.799Z,44.97
2016-10-12T14:08:21.510Z,45.75
2016-10-12T14:09:32.215Z,44.65
2016-10-12T14:10:42.932Z,43.73
2016-10-12T14:11:53.644Z,42.95
2016-10-12T14:13:04.405Z,43.16
2016-10-12T14:14:15.647Z,43.16
2016-10-12T14:15:26.869Z,43.36
2016-10-12T14:16:37.614Z,42.95
2016-10-12T14:17:48.338Z,43.44
2016-10-12T14:18:59.087Z,43.15
2016-10-12T14:20:09.814Z,43.24
2016-10-12T14:21:20.535Z,43.44
2016-10-12T14:22:31.260Z,43.24
2016-10-12T14:23:41.992Z,43.05
2016-10-12T14:24:52.744Z,41.73
2016-10-12T14:26:03.494Z,42.11
2016-10-12T14:27:14.225Z,42.41
2016-10-12T14:28:25.442Z,41.73
2016-10-12T14:29:36.173Z,42.6
2016-10-12T14:30:46.886Z,42.19
2016-10-12T14:31:57.607Z,40.85
2016-10-12T14:33:08.331Z,40.01
2016-10-12T14:34:19.174Z,40.33
2016-10-12T14:35:29.889Z,40.23
2016-10-12T14:36:40.614Z,40.01
2016-10-12T14:37:51.339Z,40.11
2016-10-12T14:39:02.059Z,40.6
2016-10-12T14:40:13.299Z,40.7
2016-10-12T14:41:24.039Z,42.43
2016-10-12T14:42:34.778Z,40.78
2016-10-12T14:43:45.505Z,39.43
2016-10-12T14:44:56.264Z,39.06
2016-10-12T14:46:07.524Z,38.89
2016-10-12T14:47:18.291Z,37.25
2016-10-12T14:48:29.023Z,38.63
2016-10-12T14:49:39.753Z,40.06
2016-10-12T14:50:50.460Z,39.14
2016-10-12T14:52:01.200Z,39.16
2016-10-12T14:53:11.929Z,39.06
2016-10-12T14:54:22.673Z,37.7
2016-10-12T14:55:33.419Z,37.43
2016-10-12T14:56:44.154Z,35.31
2016-10-12T14:57:54.904Z,34.47
2016-10-12T14:59:05.656Z,34.09
2016-10-12T15:00:16.409Z,33.82
2016-10-12T15:01:27.660Z,34.01
2016-10-12T15:02:38.875Z,32.95
2016-10-12T15:03:50.142Z,34.74
2016-10-12T15:05:00.852Z,34.68
2016-10-12T15:06:11.597Z,34.94
2016-10-12T15:07:22.312Z,35.9
2016-10-12T15:08:33.028Z,35.22
2016-10-12T15:09:43.751Z,35.51
2016-10-12T15:10:54.508Z,34.53
2016-10-12T15:12:05.219Z,33.89
2016-10-12T15:13:15.947Z,32.24